Hauptseite
METAR-TAF:

METAR-TAF

Flughäfen :

Flughafen Pohnpei

Pohnpei, Mikronesien

Breite: 06-59N, Länge: 158-12E, Höhe: 2 m

Beobachtung

Neuester Wetterbericht von vor 4 Stunden und 1 Minuten, um 03:50 UTC
Windstille
Temperatur 29°C
Luftfeuchtigkeit 84%
Luftdruck 1007 hPa
Sichtweite: 24.1 km
Aufgelockert bewölkt in der Höhe von 1800 ft, Towering cumulus.
Durchbrochene Bewölkung in der Höhe von 13000 ft
Geschlossene Wolkendecke in der Höhe von 30000 ft

METAR: PTPN 180350Z 00000KT 15SM SCT018TCU BKN130 OVC300 29/26 A2974 RMK N LAST

Zeit: 18:51 (07:51 UTC)

Prognose

Neuester Wetterbericht von vor 8 Stunden und 15 Minuten, um 23:36 UTC
Gültige Prognose vom 18 um 00 UTC bis 18 um 24 UTC
Wind 5 kt aus unterschiedlichen Richtungen
Sichtweite: 10 km
Aufgelockert bewölkt in der Höhe von 1800 ft

TAF: PTPN 172336Z 1800/1824 VRB05KT P6SM SCT018

Wetterbeobachtungen und Prognosen von mehr als 4000 Flughäfen (METAR und TAF Bericht).

Die verfügbaren Stationen werden durch gelbe und rote Markierungen auf der Karte dargestellt.

Führen Sie die Maus auf sie, um den Namen der Station zu sehen.

Darauf klicken, um die Beobachtung von Wetterbeobachtungen und Prognosen zu sehen.

Um die Karte zu ändern : klicken Sie auf den grünen Tasten mit einem schwarzen Kreuz Zum Vergrößern, auf den grünen Button mit einem Gedankenstrich zu verkleinern, oder auf die grünen Pfeile für benachbarte Karten.


METAR-TAF: